createdAt,value
2023-03-15T00:04:32.353Z,15.79
2023-03-15T00:14:33.773Z,15.76
2023-03-15T00:24:35.314Z,15.74
2023-03-15T00:34:36.704Z,15.76
2023-03-15T00:44:38.250Z,15.73
2023-03-15T00:54:39.680Z,15.68
2023-03-15T01:04:41.097Z,15.68
2023-03-15T01:14:42.554Z,15.67
2023-03-15T01:24:43.940Z,15.63
2023-03-15T01:34:45.367Z,15.62
2023-03-15T01:44:57.332Z,15.61
2023-03-15T01:55:11.192Z,15.58
2023-03-15T02:05:14.876Z,15.54
2023-03-15T02:15:16.290Z,15.54
2023-03-15T02:25:48.879Z,15.48
2023-03-15T02:35:51.334Z,15.46
2023-03-15T02:45:52.879Z,15.42
2023-03-15T02:55:54.434Z,15.37
2023-03-15T03:05:55.855Z,15.35
2023-03-15T03:15:59.790Z,15.38
2023-03-15T03:26:01.220Z,15.39
2023-03-15T03:36:04.512Z,15.36
2023-03-15T03:46:06.066Z,15.36
2023-03-15T03:56:07.851Z,15.31
2023-03-15T04:06:09.343Z,15.31
2023-03-15T04:16:10.831Z,15.28
2023-03-15T04:26:14.531Z,15.25
2023-03-15T04:36:18.934Z,15.22
2023-03-15T04:46:20.404Z,15.20
2023-03-15T04:56:22.041Z,15.17
2023-03-15T05:06:23.454Z,15.14
2023-03-15T05:16:24.886Z,15.10
2023-03-15T05:26:26.302Z,15.30
2023-03-15T05:36:27.765Z,15.56
2023-03-15T05:46:29.176Z,15.86
2023-03-15T05:56:30.716Z,16.11
2023-03-15T06:06:33.825Z,16.40
2023-03-15T06:16:35.712Z,16.63
2023-03-15T06:26:37.300Z,16.78
2023-03-15T06:36:39.854Z,16.79
2023-03-15T06:46:41.275Z,16.81
2023-03-15T06:56:43.064Z,16.75
2023-03-15T07:06:44.461Z,16.69
2023-03-15T07:16:47.484Z,16.71
2023-03-15T07:26:48.907Z,16.81
2023-03-15T07:36:50.405Z,16.96
2023-03-15T07:46:51.981Z,17.02
2023-03-15T07:56:53.417Z,17.08
2023-03-15T08:06:54.937Z,17.04
2023-03-15T08:16:56.512Z,17.03
2023-03-15T08:26:57.896Z,17.08
2023-03-15T08:36:59.497Z,17.23
2023-03-15T08:47:00.931Z,17.30
2023-03-15T08:57:02.538Z,17.82
2023-03-15T09:07:03.938Z,17.93
2023-03-15T09:17:05.357Z,17.81
2023-03-15T09:27:06.954Z,17.94
2023-03-15T09:37:08.621Z,17.79
2023-03-15T09:47:42.778Z,18.09
2023-03-15T09:57:55.343Z,18.14
2023-03-15T10:07:56.738Z,22.36
2023-03-15T10:17:57.980Z,20.33
2023-03-15T10:28:00.927Z,18.87
2023-03-15T10:38:02.586Z,18.58
2023-03-15T10:48:03.998Z,18.51
2023-03-15T10:58:20.719Z,18.71
2023-03-15T11:08:24.071Z,18.69
2023-03-15T11:18:31.520Z,18.53
2023-03-15T11:28:33.033Z,18.64
2023-03-15T11:38:44.154Z,18.65
2023-03-15T11:48:51.287Z,18.54
2023-03-15T11:59:06.475Z,18.60
2023-03-15T12:09:33.570Z,18.66
2023-03-15T12:19:34.972Z,18.54
2023-03-15T12:29:37.169Z,18.55
2023-03-15T12:39:50.537Z,18.51
2023-03-15T12:49:52.010Z,18.50
2023-03-15T13:00:13.232Z,18.47
2023-03-15T13:10:24.397Z,18.49
2023-03-15T13:20:47.465Z,18.46
2023-03-15T13:30:49.417Z,18.30
2023-03-15T13:40:50.994Z,18.22
2023-03-15T13:50:52.768Z,18.11
2023-03-15T14:01:01.065Z,18.01
2023-03-15T14:11:07.318Z,17.90
2023-03-15T14:21:19.830Z,17.85
2023-03-15T14:31:29.184Z,17.80
2023-03-15T14:41:33.169Z,17.71
2023-03-15T14:51:34.606Z,17.67
2023-03-15T15:01:36.239Z,17.60
2023-03-15T15:11:37.778Z,17.55
2023-03-15T15:21:39.253Z,17.48
2023-03-15T15:31:41.521Z,17.44
2023-03-15T15:41:42.936Z,17.40
2023-03-15T15:51:49.407Z,17.34
2023-03-15T16:02:00.173Z,17.30
2023-03-15T16:12:02.463Z,17.20
2023-03-15T16:22:03.993Z,17.15
2023-03-15T16:32:16.954Z,17.08
2023-03-15T16:42:23.782Z,17.02
2023-03-15T16:52:25.319Z,16.94
2023-03-15T17:02:28.614Z,16.85
2023-03-15T17:12:30.066Z,16.75
2023-03-15T17:22:31.467Z,16.69
2023-03-15T17:32:32.921Z,16.60
2023-03-15T17:42:34.415Z,16.51
2023-03-15T17:52:35.866Z,16.41
2023-03-15T18:02:40.755Z,16.34
2023-03-15T18:12:46.557Z,16.27
2023-03-15T18:22:48.361Z,16.22
2023-03-15T18:32:50.469Z,16.17
2023-03-15T18:42:51.940Z,16.09
2023-03-15T18:52:53.336Z,16.05
2023-03-15T19:02:56.749Z,16.02
2023-03-15T19:12:58.186Z,15.97
2023-03-15T19:22:59.596Z,15.91
2023-03-15T19:33:01.354Z,15.90
2023-03-15T19:43:02.885Z,15.86
2023-03-15T19:53:05.028Z,15.83
2023-03-15T20:03:06.749Z,15.79
2023-03-15T20:13:09.967Z,15.75
2023-03-15T20:23:11.509Z,15.71
2023-03-15T20:33:13.104Z,15.69
2023-03-15T20:43:14.518Z,15.64
2023-03-15T20:53:16.103Z,15.63
2023-03-15T21:03:17.745Z,15.60
2023-03-15T21:13:19.391Z,15.53
2023-03-15T21:23:22.108Z,15.50
2023-03-15T21:33:24.236Z,15.46
2023-03-15T21:43:26.588Z,15.40
2023-03-15T21:53:28.506Z,15.35
2023-03-15T22:03:29.943Z,15.32
2023-03-15T22:13:31.358Z,15.27
2023-03-15T22:23:32.930Z,15.22
2023-03-15T22:33:34.303Z,15.19
2023-03-15T22:43:36.038Z,15.15
2023-03-15T22:53:37.606Z,15.11
2023-03-15T23:03:39.398Z,15.07
2023-03-15T23:13:41.995Z,15.02
2023-03-15T23:23:43.427Z,15.00
2023-03-15T23:33:46.916Z,14.96
2023-03-15T23:43:48.315Z,14.92
2023-03-15T23:53:49.852Z,14.88
